Aviation Digital Data Service (ADDS)

Output produced by METARs form (0025 UTC 25 April 2019)
found at http://www.aviationweather.gov/metar/data/
 
METAR text: YPXM 250000Z AUTO 12011KT 9999 // BKN011 OVC017 26/24 Q1011
Conditions at: YPXM (CHRISTMAS ISL (P, AU) observed 0000 UTC 25 April 2019
Temperature: 26.0°C (79°F)
Dewpoint: 24.0°C (75°F) [RH = 89%]
Pressure (altimeter): 29.85 inches Hg (1011.0 mb)
Winds: from the ESE (120 degrees) at 13 MPH (11 knots; 5.7 m/s)
Visibility: 6 or more miles (10+ km)
Ceiling: 1100 feet AGL
Clouds: broken clouds at 1100 feet AGL
overcast cloud deck at 1700 feet AGL
Weather: no significant weather observed at this time

METAR text: YPXM 242330Z AUTO 11009KT 9999 // SCT009 BKN014 26/24 Q1011
Conditions at: YPXM (CHRISTMAS ISL (P, AU) observed 2330 UTC 24 April 2019
Temperature: 26.0°C (79°F)
Dewpoint: 24.0°C (75°F) [RH = 89%]
Pressure (altimeter): 29.85 inches Hg (1011.0 mb)
Winds: from the ESE (110 degrees) at 10 MPH (9 knots; 4.6 m/s)
Visibility: 6 or more miles (10+ km)
Ceiling: 1400 feet AGL
Clouds: scattered clouds at 900 feet AGL
broken clouds at 1400 feet AGL
Weather: no significant weather observed at this time

METAR text: YPXM 242327Z AUTO 11008KT 9999 // SCT009 BKN014 26/24 Q1011
Conditions at: YPXM (CHRISTMAS ISL (P, AU) observed 2327 UTC 24 April 2019
Temperature: 26.0°C (79°F)
Dewpoint: 24.0°C (75°F) [RH = 89%]
Pressure (altimeter): 29.85 inches Hg (1011.0 mb)
Winds: from the ESE (110 degrees) at 9 MPH (8 knots; 4.1 m/s)
Visibility: 6 or more miles (10+ km)
Ceiling: 1400 feet AGL
Clouds: scattered clouds at 900 feet AGL
broken clouds at 1400 feet AGL
Weather: no significant weather observed at this time

METAR text: YPXM 242321Z AUTO 11008KT 9999 // SCT006 BKN016 26/23 Q1011
Conditions at: YPXM (CHRISTMAS ISL (P, AU) observed 2321 UTC 24 April 2019
Temperature: 26.0°C (79°F)
Dewpoint: 23.0°C (73°F) [RH = 84%]
Pressure (altimeter): 29.85 inches Hg (1011.0 mb)
Winds: from the ESE (110 degrees) at 9 MPH (8 knots; 4.1 m/s)
Visibility: 6 or more miles (10+ km)
Ceiling: 1600 feet AGL
Clouds: scattered clouds at 600 feet AGL
broken clouds at 1600 feet AGL
Weather: no significant weather observed at this time

METAR text: YPXM 242300Z AUTO 12007KT 9999 // BKN006 25/24 Q1011 RF00.0////./
Conditions at: YPXM (CHRISTMAS ISL (P, AU) observed 2300 UTC 24 April 2019
Temperature: 25.0°C (77°F)
Dewpoint: 24.0°C (75°F) [RH = 94%]
Pressure (altimeter): 29.85 inches Hg (1011.0 mb)
Winds: from the ESE (120 degrees) at 8 MPH (7 knots; 3.6 m/s)
Visibility: 6 or more miles (10+ km)
Ceiling: 600 feet AGL
Clouds: broken clouds at 600 feet AGL
Weather: no significant weather observed at this time

METAR text: YPXM 242241Z AUTO 13007KT 9999 // BKN006 25/24 Q1011 RF00/0//////
Conditions at: YPXM (CHRISTMAS ISL (P, AU) observed 2241 UTC 24 April 2019
Temperature: 25.0°C (77°F)
Dewpoint: 24.0°C (75°F) [RH = 94%]
Pressure (altimeter): 29.85 inches Hg (1011.0 mb)
Winds: from the SE (130 degrees) at 8 MPH (7 knots; 3.6 m/s)
Visibility: 6 or more miles (10+ km)
Ceiling: 600 feet AGL
Clouds: broken clouds at 600 feet AGL
Weather: no significant weather observed at this time

METAR text: YPXM 242230Z AUTO 11008KT 9999 // SCT006 BKN018 25/24 Q1011
Conditions at: YPXM (CHRISTMAS ISL (P, AU) observed 2230 UTC 24 April 2019
Temperature: 25.0°C (77°F)
Dewpoint: 24.0°C (75°F) [RH = 94%]
Pressure (altimeter): 29.85 inches Hg (1011.0 mb)
Winds: from the ESE (110 degrees) at 9 MPH (8 knots; 4.1 m/s)
Visibility: 6 or more miles (10+ km)
Ceiling: 1800 feet AGL
Clouds: scattered clouds at 600 feet AGL
broken clouds at 1800 feet AGL
Weather: no significant weather observed at this time

METAR text: YPXM 242226Z AUTO 10008KT 9999 // SCT006 BKN018 25/23 Q1011
Conditions at: YPXM (CHRISTMAS ISL (P, AU) observed 2226 UTC 24 April 2019
Temperature: 25.0°C (77°F)
Dewpoint: 23.0°C (73°F) [RH = 89%]
Pressure (altimeter): 29.85 inches Hg (1011.0 mb)
Winds: from the E (100 degrees) at 9 MPH (8 knots; 4.1 m/s)
Visibility: 6 or more miles (10+ km)
Ceiling: 1800 feet AGL
Clouds: scattered clouds at 600 feet AGL
broken clouds at 1800 feet AGL
Weather: no significant weather observed at this time

METAR text: YPXM 242200Z AUTO 09012KT 9999 // BKN004 OVC011 25/23 Q1011
Conditions at: YPXM (CHRISTMAS ISL (P, AU) observed 2200 UTC 24 April 2019
Temperature: 25.0°C (77°F)
Dewpoint: 23.0°C (73°F) [RH = 89%]
Pressure (altimeter): 29.85 inches Hg (1011.0 mb)
Winds: from the E (90 degrees) at 14 MPH (12 knots; 6.2 m/s)
Visibility: 6 or more miles (10+ km)
Ceiling: 400 feet AGL
Clouds: broken clouds at 400 feet AGL
overcast cloud deck at 1100 feet AGL
Weather: no significant weather observed at this time

METAR text: YPXM 242130Z AUTO 11012KT 9999 // BKN006 BKN008 OVC016 25/24 Q1010
Conditions at: YPXM (CHRISTMAS ISL (P, AU) observed 2130 UTC 24 April 2019
Temperature: 25.0°C (77°F)
Dewpoint: 24.0°C (75°F) [RH = 94%]
Pressure (altimeter): 29.82 inches Hg (1010.0 mb)
Winds: from the ESE (110 degrees) at 14 MPH (12 knots; 6.2 m/s)
Visibility: 6 or more miles (10+ km)
Ceiling: 600 feet AGL
Clouds: broken clouds at 600 feet AGL
broken clouds at 800 feet AGL
overcast cloud deck at 1600 feet AGL
Weather: no significant weather observed at this time

METAR text: YPXM 242117Z AUTO 11010KT 9999 // BKN008 BKN018 25/24 Q1011
Conditions at: YPXM (CHRISTMAS ISL (P, AU) observed 2117 UTC 24 April 2019
Temperature: 25.0°C (77°F)
Dewpoint: 24.0°C (75°F) [RH = 94%]
Pressure (altimeter): 29.85 inches Hg (1011.0 mb)
Winds: from the ESE (110 degrees) at 12 MPH (10 knots; 5.1 m/s)
Visibility: 6 or more miles (10+ km)
Ceiling: 800 feet AGL
Clouds: broken clouds at 800 feet AGL
broken clouds at 1800 feet AGL
Weather: no significant weather observed at this time

METAR text: YPXM 242102Z AUTO 13008KT 9999 // SCT008 SCT020 25/24 Q1011
Conditions at: YPXM (CHRISTMAS ISL (P, AU) observed 2102 UTC 24 April 2019
Temperature: 25.0°C (77°F)
Dewpoint: 24.0°C (75°F) [RH = 94%]
Pressure (altimeter): 29.85 inches Hg (1011.0 mb)
Winds: from the SE (130 degrees) at 9 MPH (8 knots; 4.1 m/s)
Visibility: 6 or more miles (10+ km)
Ceiling: at least 12,000 feet AGL
Clouds: scattered clouds at 800 feet AGL
scattered clouds at 2000 feet AGL
Weather: no significant weather observed at this time

METAR text: YPXM 242100Z AUTO 13008KT 9999 // SCT008 SCT020 25/24 Q1010
Conditions at: YPXM (CHRISTMAS ISL (P, AU) observed 2100 UTC 24 April 2019
Temperature: 25.0°C (77°F)
Dewpoint: 24.0°C (75°F) [RH = 94%]
Pressure (altimeter): 29.82 inches Hg (1010.0 mb)
Winds: from the SE (130 degrees) at 9 MPH (8 knots; 4.1 m/s)
Visibility: 6 or more miles (10+ km)
Ceiling: at least 12,000 feet AGL
Clouds: scattered clouds at 800 feet AGL
scattered clouds at 2000 feet AGL
Weather: no significant weather observed at this time

METAR text: YPXM 242030Z AUTO 12009KT 9999 // BKN008 OVC019 25/24 Q1011
Conditions at: YPXM (CHRISTMAS ISL (P, AU) observed 2030 UTC 24 April 2019
Temperature: 25.0°C (77°F)
Dewpoint: 24.0°C (75°F) [RH = 94%]
Pressure (altimeter): 29.85 inches Hg (1011.0 mb)
Winds: from the ESE (120 degrees) at 10 MPH (9 knots; 4.6 m/s)
Visibility: 6 or more miles (10+ km)
Ceiling: 800 feet AGL
Clouds: broken clouds at 800 feet AGL
overcast cloud deck at 1900 feet AGL
Weather: no significant weather observed at this time

METAR text: YPXM 242000Z AUTO 11008KT 9999 // BKN008 BKN021 OVC032 25/25 Q1011
Conditions at: YPXM (CHRISTMAS ISL (P, AU) observed 2000 UTC 24 April 2019
Temperature: 25.0°C (77°F)
Dewpoint: 25.0°C (77°F) [RH = 100%]
Pressure (altimeter): 29.85 inches Hg (1011.0 mb)
Winds: from the ESE (110 degrees) at 9 MPH (8 knots; 4.1 m/s)
Visibility: 6 or more miles (10+ km)
Ceiling: 800 feet AGL
Clouds: broken clouds at 800 feet AGL
broken clouds at 2100 feet AGL
overcast cloud deck at 3200 feet AGL
Weather: no significant weather observed at this time

METAR text: YPXM 241959Z AUTO 12008KT 9999 // SCT004 BKN008 BKN021 25/25 Q1011
Conditions at: YPXM (CHRISTMAS ISL (P, AU) observed 1959 UTC 24 April 2019
Temperature: 25.0°C (77°F)
Dewpoint: 25.0°C (77°F) [RH = 100%]
Pressure (altimeter): 29.85 inches Hg (1011.0 mb)
Winds: from the ESE (120 degrees) at 9 MPH (8 knots; 4.1 m/s)
Visibility: 6 or more miles (10+ km)
Ceiling: 800 feet AGL
Clouds: scattered clouds at 400 feet AGL
broken clouds at 800 feet AGL
broken clouds at 2100 feet AGL
Weather: no significant weather observed at this time

METAR text: YPXM 241930Z AUTO 06011KT 2300 RA BKN002 OVC006 OVC014 25/25 Q1011
Conditions at: YPXM (CHRISTMAS ISL (P, AU) observed 1930 UTC 24 April 2019
Temperature: 25.0°C (77°F)
Dewpoint: 25.0°C (77°F) [RH = 100%]
Pressure (altimeter): 29.85 inches Hg (1011.0 mb)
Winds: from the ENE (60 degrees) at 13 MPH (11 knots; 5.7 m/s)
Visibility: 1.43 miles (2.30 km)
Ceiling: 200 feet AGL
Clouds: broken clouds at 200 feet AGL
overcast cloud deck at 600 feet AGL
overcast cloud deck at 1400 feet AGL
Weather: RA  (moderate rain)

METAR text: YPXM 241919Z AUTO 10009KT 6000 RA BKN006 OVC014 25/24 Q1011
Conditions at: YPXM (CHRISTMAS ISL (P, AU) observed 1919 UTC 24 April 2019
Temperature: 25.0°C (77°F)
Dewpoint: 24.0°C (75°F) [RH = 94%]
Pressure (altimeter): 29.85 inches Hg (1011.0 mb)
Winds: from the E (100 degrees) at 10 MPH (9 knots; 4.6 m/s)
Visibility: 4 miles ( 6 km)
Ceiling: 600 feet AGL
Clouds: broken clouds at 600 feet AGL
overcast cloud deck at 1400 feet AGL
Weather: RA  (moderate rain)

METAR text: YPXM 241900Z AUTO 10010KT 9999 // SCT006 SCT009 BKN014 26/24 Q1011
Conditions at: YPXM (CHRISTMAS ISL (P, AU) observed 1900 UTC 24 April 2019
Temperature: 26.0°C (79°F)
Dewpoint: 24.0°C (75°F) [RH = 89%]
Pressure (altimeter): 29.85 inches Hg (1011.0 mb)
Winds: from the E (100 degrees) at 12 MPH (10 knots; 5.1 m/s)
Visibility: 6 or more miles (10+ km)
Ceiling: 1400 feet AGL
Clouds: scattered clouds at 600 feet AGL
scattered clouds at 900 feet AGL
broken clouds at 1400 feet AGL
Weather: no significant weather observed at this time

METAR text: YPXM 241830Z AUTO 11009KT 9999 // BKN012 OVC017 26/24 Q1011
Conditions at: YPXM (CHRISTMAS ISL (P, AU) observed 1830 UTC 24 April 2019
Temperature: 26.0°C (79°F)
Dewpoint: 24.0°C (75°F) [RH = 89%]
Pressure (altimeter): 29.85 inches Hg (1011.0 mb)
Winds: from the ESE (110 degrees) at 10 MPH (9 knots; 4.6 m/s)
Visibility: 6 or more miles (10+ km)
Ceiling: 1200 feet AGL
Clouds: broken clouds at 1200 feet AGL
overcast cloud deck at 1700 feet AGL
Weather: no significant weather observed at this time

METAR text: YPXM 241800Z AUTO 10009KT 9999 // OVC012 OVC017 26/24 Q1012
Conditions at: YPXM (CHRISTMAS ISL (P, AU) observed 1800 UTC 24 April 2019
Temperature: 26.0°C (79°F)
Dewpoint: 24.0°C (75°F) [RH = 89%]
Pressure (altimeter): 29.88 inches Hg (1012.0 mb)
Winds: from the E (100 degrees) at 10 MPH (9 knots; 4.6 m/s)
Visibility: 6 or more miles (10+ km)
Ceiling: 1200 feet AGL
Clouds: overcast cloud deck at 1200 feet AGL
overcast cloud deck at 1700 feet AGL
Weather: no significant weather observed at this time

METAR text: YPXM 241747Z AUTO 10009KT 9999 // BKN012 OVC017 26/24 Q1012
Conditions at: YPXM (CHRISTMAS ISL (P, AU) observed 1747 UTC 24 April 2019
Temperature: 26.0°C (79°F)
Dewpoint: 24.0°C (75°F) [RH = 89%]
Pressure (altimeter): 29.88 inches Hg (1012.0 mb)
Winds: from the E (100 degrees) at 10 MPH (9 knots; 4.6 m/s)
Visibility: 6 or more miles (10+ km)
Ceiling: 1200 feet AGL
Clouds: broken clouds at 1200 feet AGL
overcast cloud deck at 1700 feet AGL
Weather: no significant weather observed at this time

METAR text: YPXM 241740Z AUTO 10009KT 9999 // OVC012 26/24 Q1012 RF00/0//////
Conditions at: YPXM (CHRISTMAS ISL (P, AU) observed 1740 UTC 24 April 2019
Temperature: 26.0°C (79°F)
Dewpoint: 24.0°C (75°F) [RH = 89%]
Pressure (altimeter): 29.88 inches Hg (1012.0 mb)
Winds: from the E (100 degrees) at 10 MPH (9 knots; 4.6 m/s)
Visibility: 6 or more miles (10+ km)
Ceiling: 1200 feet AGL
Clouds: overcast cloud deck at 1200 feet AGL
Weather: no significant weather observed at this time

METAR text: YPXM 241730Z AUTO 11009KT 9999 // OVC013 OVC017 26/24 Q1012
Conditions at: YPXM (CHRISTMAS ISL (P, AU) observed 1730 UTC 24 April 2019
Temperature: 26.0°C (79°F)
Dewpoint: 24.0°C (75°F) [RH = 89%]
Pressure (altimeter): 29.88 inches Hg (1012.0 mb)
Winds: from the ESE (110 degrees) at 10 MPH (9 knots; 4.6 m/s)
Visibility: 6 or more miles (10+ km)
Ceiling: 1300 feet AGL
Clouds: overcast cloud deck at 1300 feet AGL
overcast cloud deck at 1700 feet AGL
Weather: no significant weather observed at this time

METAR text: YPXM 241722Z AUTO 11009KT 9999 // BKN013 26/24 Q1012 RF00/0//////
Conditions at: YPXM (CHRISTMAS ISL (P, AU) observed 1722 UTC 24 April 2019
Temperature: 26.0°C (79°F)
Dewpoint: 24.0°C (75°F) [RH = 89%]
Pressure (altimeter): 29.88 inches Hg (1012.0 mb)
Winds: from the ESE (110 degrees) at 10 MPH (9 knots; 4.6 m/s)
Visibility: 6 or more miles (10+ km)
Ceiling: 1300 feet AGL
Clouds: broken clouds at 1300 feet AGL
Weather: no significant weather observed at this time

METAR text: YPXM 241700Z AUTO 10007KT 9999 // SCT015 SCT048 BKN055 26/23 Q1012
Conditions at: YPXM (CHRISTMAS ISL (P, AU) observed 1700 UTC 24 April 2019
Temperature: 26.0°C (79°F)
Dewpoint: 23.0°C (73°F) [RH = 84%]
Pressure (altimeter): 29.88 inches Hg (1012.0 mb)
Winds: from the E (100 degrees) at 8 MPH (7 knots; 3.6 m/s)
Visibility: 6 or more miles (10+ km)
Ceiling: 5500 feet AGL
Clouds: scattered clouds at 1500 feet AGL
scattered clouds at 4800 feet AGL
broken clouds at 5500 feet AGL
Weather: no significant weather observed at this time

METAR text: YPXM 241630Z AUTO 12007KT 9999 // SCT009 SCT024 BKN050 25/24 Q1012
Conditions at: YPXM (CHRISTMAS ISL (P, AU) observed 1630 UTC 24 April 2019
Temperature: 25.0°C (77°F)
Dewpoint: 24.0°C (75°F) [RH = 94%]
Pressure (altimeter): 29.88 inches Hg (1012.0 mb)
Winds: from the ESE (120 degrees) at 8 MPH (7 knots; 3.6 m/s)
Visibility: 6 or more miles (10+ km)
Ceiling: 5000 feet AGL
Clouds: scattered clouds at 900 feet AGL
scattered clouds at 2400 feet AGL
broken clouds at 5000 feet AGL
Weather: no significant weather observed at this time

METAR text: YPXM 241600Z AUTO 13007KT 9999 // SCT025 SCT043 BKN049 25/23 Q1012
Conditions at: YPXM (CHRISTMAS ISL (P, AU) observed 1600 UTC 24 April 2019
Temperature: 25.0°C (77°F)
Dewpoint: 23.0°C (73°F) [RH = 89%]
Pressure (altimeter): 29.88 inches Hg (1012.0 mb)
Winds: from the SE (130 degrees) at 8 MPH (7 knots; 3.6 m/s)
Visibility: 6 or more miles (10+ km)
Ceiling: 4900 feet AGL
Clouds: scattered clouds at 2500 feet AGL
scattered clouds at 4300 feet AGL
broken clouds at 4900 feet AGL
Weather: no significant weather observed at this time

METAR text: YPXM 241531Z AUTO 13006KT 9999 // SCT006 BKN019 OVC023 24/23 Q1012
Conditions at: YPXM (CHRISTMAS ISL (P, AU) observed 1531 UTC 24 April 2019
Temperature: 24.0°C (75°F)
Dewpoint: 23.0°C (73°F) [RH = 94%]
Pressure (altimeter): 29.88 inches Hg (1012.0 mb)
Winds: from the SE (130 degrees) at 7 MPH (6 knots; 3.1 m/s)
Visibility: 6 or more miles (10+ km)
Ceiling: 1900 feet AGL
Clouds: scattered clouds at 600 feet AGL
broken clouds at 1900 feet AGL
overcast cloud deck at 2300 feet AGL
Weather: no significant weather observed at this time

METAR text: YPXM 241530Z AUTO 13006KT 9999 // SCT006 BKN019 OVC023 24/23 Q1012
Conditions at: YPXM (CHRISTMAS ISL (P, AU) observed 1530 UTC 24 April 2019
Temperature: 24.0°C (75°F)
Dewpoint: 23.0°C (73°F) [RH = 94%]
Pressure (altimeter): 29.88 inches Hg (1012.0 mb)
Winds: from the SE (130 degrees) at 7 MPH (6 knots; 3.1 m/s)
Visibility: 6 or more miles (10+ km)
Ceiling: 1900 feet AGL
Clouds: scattered clouds at 600 feet AGL
broken clouds at 1900 feet AGL
overcast cloud deck at 2300 feet AGL
Weather: no significant weather observed at this time

METAR text: YPXM 241500Z AUTO 11011KT 9999 // BKN003 BKN007 OVC011 25/23 Q1013
Conditions at: YPXM (CHRISTMAS ISL (P, AU) observed 1500 UTC 24 April 2019
Temperature: 25.0°C (77°F)
Dewpoint: 23.0°C (73°F) [RH = 89%]
Pressure (altimeter): 29.91 inches Hg (1013.0 mb)
Winds: from the ESE (110 degrees) at 13 MPH (11 knots; 5.7 m/s)
Visibility: 6 or more miles (10+ km)
Ceiling: 300 feet AGL
Clouds: broken clouds at 300 feet AGL
broken clouds at 700 feet AGL
overcast cloud deck at 1100 feet AGL
Weather: no significant weather observed at this time

METAR text: YPXM 241430Z AUTO 12011KT 9999 // BKN009 OVC013 26/24 Q1012
Conditions at: YPXM (CHRISTMAS ISL (P, AU) observed 1430 UTC 24 April 2019
Temperature: 26.0°C (79°F)
Dewpoint: 24.0°C (75°F) [RH = 89%]
Pressure (altimeter): 29.88 inches Hg (1012.0 mb)
Winds: from the ESE (120 degrees) at 13 MPH (11 knots; 5.7 m/s)
Visibility: 6 or more miles (10+ km)
Ceiling: 900 feet AGL
Clouds: broken clouds at 900 feet AGL
overcast cloud deck at 1300 feet AGL
Weather: no significant weather observed at this time

METAR text: YPXM 241400Z AUTO 11011KT 9999 // SCT007 BKN012 BKN022 26/25 Q1012
Conditions at: YPXM (CHRISTMAS ISL (P, AU) observed 1400 UTC 24 April 2019
Temperature: 26.0°C (79°F)
Dewpoint: 25.0°C (77°F) [RH = 94%]
Pressure (altimeter): 29.88 inches Hg (1012.0 mb)
Winds: from the ESE (110 degrees) at 13 MPH (11 knots; 5.7 m/s)
Visibility: 6 or more miles (10+ km)
Ceiling: 1200 feet AGL
Clouds: scattered clouds at 700 feet AGL
broken clouds at 1200 feet AGL
broken clouds at 2200 feet AGL
Weather: no significant weather observed at this time

METAR text: YPXM 241330Z AUTO 10009KT 9999 // BKN009 BKN013 OVC018 26/24 Q1012
Conditions at: YPXM (CHRISTMAS ISL (P, AU) observed 1330 UTC 24 April 2019
Temperature: 26.0°C (79°F)
Dewpoint: 24.0°C (75°F) [RH = 89%]
Pressure (altimeter): 29.88 inches Hg (1012.0 mb)
Winds: from the E (100 degrees) at 10 MPH (9 knots; 4.6 m/s)
Visibility: 6 or more miles (10+ km)
Ceiling: 900 feet AGL
Clouds: broken clouds at 900 feet AGL
broken clouds at 1300 feet AGL
overcast cloud deck at 1800 feet AGL
Weather: no significant weather observed at this time

METAR text: YPXM 241309Z AUTO 09009KT 9999 // BKN011 BKN018 26/24 Q1012
Conditions at: YPXM (CHRISTMAS ISL (P, AU) observed 1309 UTC 24 April 2019
Temperature: 26.0°C (79°F)
Dewpoint: 24.0°C (75°F) [RH = 89%]
Pressure (altimeter): 29.88 inches Hg (1012.0 mb)
Winds: from the E (90 degrees) at 10 MPH (9 knots; 4.6 m/s)
Visibility: 6 or more miles (10+ km)
Ceiling: 1100 feet AGL
Clouds: broken clouds at 1100 feet AGL
broken clouds at 1800 feet AGL
Weather: no significant weather observed at this time

METAR text: YPXM 241308Z AUTO 09009KT 9999 // SCT008 BKN011 BKN018 26/24 Q1012
Conditions at: YPXM (CHRISTMAS ISL (P, AU) observed 1308 UTC 24 April 2019
Temperature: 26.0°C (79°F)
Dewpoint: 24.0°C (75°F) [RH = 89%]
Pressure (altimeter): 29.88 inches Hg (1012.0 mb)
Winds: from the E (90 degrees) at 10 MPH (9 knots; 4.6 m/s)
Visibility: 6 or more miles (10+ km)
Ceiling: 1100 feet AGL
Clouds: scattered clouds at 800 feet AGL
broken clouds at 1100 feet AGL
broken clouds at 1800 feet AGL
Weather: no significant weather observed at this time

METAR text: YPXM 241300Z AUTO 11009KT 9999 // SCT008 BKN018 26/24 Q1012
Conditions at: YPXM (CHRISTMAS ISL (P, AU) observed 1300 UTC 24 April 2019
Temperature: 26.0°C (79°F)
Dewpoint: 24.0°C (75°F) [RH = 89%]
Pressure (altimeter): 29.88 inches Hg (1012.0 mb)
Winds: from the ESE (110 degrees) at 10 MPH (9 knots; 4.6 m/s)
Visibility: 6 or more miles (10+ km)
Ceiling: 1800 feet AGL
Clouds: scattered clouds at 800 feet AGL
broken clouds at 1800 feet AGL
Weather: no significant weather observed at this time

METAR text: YPXM 241230Z AUTO 13009KT 9999 // SCT003 OVC008 25/24 Q1012
Conditions at: YPXM (CHRISTMAS ISL (P, AU) observed 1230 UTC 24 April 2019
Temperature: 25.0°C (77°F)
Dewpoint: 24.0°C (75°F) [RH = 94%]
Pressure (altimeter): 29.88 inches Hg (1012.0 mb)
Winds: from the SE (130 degrees) at 10 MPH (9 knots; 4.6 m/s)
Visibility: 6 or more miles (10+ km)
Ceiling: 800 feet AGL
Clouds: scattered clouds at 300 feet AGL
overcast cloud deck at 800 feet AGL
Weather: no significant weather observed at this time

METAR text: YPXM 241200Z AUTO 11012KT 9999 // SCT009 BKN012 BKN025 26/24 Q1011
Conditions at: YPXM (CHRISTMAS ISL (P, AU) observed 1200 UTC 24 April 2019
Temperature: 26.0°C (79°F)
Dewpoint: 24.0°C (75°F) [RH = 89%]
Pressure (altimeter): 29.85 inches Hg (1011.0 mb)
Winds: from the ESE (110 degrees) at 14 MPH (12 knots; 6.2 m/s)
Visibility: 6 or more miles (10+ km)
Ceiling: 1200 feet AGL
Clouds: scattered clouds at 900 feet AGL
broken clouds at 1200 feet AGL
broken clouds at 2500 feet AGL
Weather: no significant weather observed at this time

METAR text: YPXM 241130Z AUTO 12010KT 9999 // BKN009 OVC013 26/25 Q1011
Conditions at: YPXM (CHRISTMAS ISL (P, AU) observed 1130 UTC 24 April 2019
Temperature: 26.0°C (79°F)
Dewpoint: 25.0°C (77°F) [RH = 94%]
Pressure (altimeter): 29.85 inches Hg (1011.0 mb)
Winds: from the ESE (120 degrees) at 12 MPH (10 knots; 5.1 m/s)
Visibility: 6 or more miles (10+ km)
Ceiling: 900 feet AGL
Clouds: broken clouds at 900 feet AGL
overcast cloud deck at 1300 feet AGL
Weather: no significant weather observed at this time

METAR text: YPXM 241109Z AUTO 14009KT 9999 // SCT006 BKN013 BKN019 26/24 Q1011
Conditions at: YPXM (CHRISTMAS ISL (P, AU) observed 1109 UTC 24 April 2019
Temperature: 26.0°C (79°F)
Dewpoint: 24.0°C (75°F) [RH = 89%]
Pressure (altimeter): 29.85 inches Hg (1011.0 mb)
Winds: from the SE (140 degrees) at 10 MPH (9 knots; 4.6 m/s)
Visibility: 6 or more miles (10+ km)
Ceiling: 1300 feet AGL
Clouds: scattered clouds at 600 feet AGL
broken clouds at 1300 feet AGL
broken clouds at 1900 feet AGL
Weather: no significant weather observed at this time

METAR text: YPXM 241100Z AUTO 11010KT 9999 // SCT004 BKN019 BKN022 26/24 Q1011
Conditions at: YPXM (CHRISTMAS ISL (P, AU) observed 1100 UTC 24 April 2019
Temperature: 26.0°C (79°F)
Dewpoint: 24.0°C (75°F) [RH = 89%]
Pressure (altimeter): 29.85 inches Hg (1011.0 mb)
Winds: from the ESE (110 degrees) at 12 MPH (10 knots; 5.1 m/s)
Visibility: 6 or more miles (10+ km)
Ceiling: 1900 feet AGL
Clouds: scattered clouds at 400 feet AGL
broken clouds at 1900 feet AGL
broken clouds at 2200 feet AGL
Weather: no significant weather observed at this time

METAR text: YPXM 241030Z AUTO 09010KT 9999 // SCT017 BKN026 BKN031 27/24 Q1011
Conditions at: YPXM (CHRISTMAS ISL (P, AU) observed 1030 UTC 24 April 2019
Temperature: 27.0°C (81°F)
Dewpoint: 24.0°C (75°F) [RH = 84%]
Pressure (altimeter): 29.85 inches Hg (1011.0 mb)
Winds: from the E (90 degrees) at 12 MPH (10 knots; 5.1 m/s)
Visibility: 6 or more miles (10+ km)
Ceiling: 2600 feet AGL
Clouds: scattered clouds at 1700 feet AGL
broken clouds at 2600 feet AGL
broken clouds at 3100 feet AGL
Weather: no significant weather observed at this time

METAR text: YPXM 241000Z AUTO 12012KT 9999 // BKN014 BKN020 OVC025 27/24 Q1010
Conditions at: YPXM (CHRISTMAS ISL (P, AU) observed 1000 UTC 24 April 2019
Temperature: 27.0°C (81°F)
Dewpoint: 24.0°C (75°F) [RH = 84%]
Pressure (altimeter): 29.82 inches Hg (1010.0 mb)
Winds: from the ESE (120 degrees) at 14 MPH (12 knots; 6.2 m/s)
Visibility: 6 or more miles (10+ km)
Ceiling: 1400 feet AGL
Clouds: broken clouds at 1400 feet AGL
broken clouds at 2000 feet AGL
overcast cloud deck at 2500 feet AGL
Weather: no significant weather observed at this time

METAR text: YPXM 240950Z AUTO 12013KT 9999 // SCT009 BKN014 BKN020 27/24 Q1010
Conditions at: YPXM (CHRISTMAS ISL (P, AU) observed 0950 UTC 24 April 2019
Temperature: 27.0°C (81°F)
Dewpoint: 24.0°C (75°F) [RH = 84%]
Pressure (altimeter): 29.82 inches Hg (1010.0 mb)
Winds: from the ESE (120 degrees) at 15 MPH (13 knots; 6.7 m/s)
Visibility: 6 or more miles (10+ km)
Ceiling: 1400 feet AGL
Clouds: scattered clouds at 900 feet AGL
broken clouds at 1400 feet AGL
broken clouds at 2000 feet AGL
Weather: no significant weather observed at this time

METAR text: YPXM 240930Z AUTO 12011KT 9999 // SCT009 OVC015 27/24 Q1010
Conditions at: YPXM (CHRISTMAS ISL (P, AU) observed 0930 UTC 24 April 2019
Temperature: 27.0°C (81°F)
Dewpoint: 24.0°C (75°F) [RH = 84%]
Pressure (altimeter): 29.82 inches Hg (1010.0 mb)
Winds: from the ESE (120 degrees) at 13 MPH (11 knots; 5.7 m/s)
Visibility: 6 or more miles (10+ km)
Ceiling: 1500 feet AGL
Clouds: scattered clouds at 900 feet AGL
overcast cloud deck at 1500 feet AGL
Weather: no significant weather observed at this time

METAR text: YPXM 240900Z AUTO 11010KT 9999 // BKN015 BKN027 27/24 Q1010
Conditions at: YPXM (CHRISTMAS ISL (P, AU) observed 0900 UTC 24 April 2019
Temperature: 27.0°C (81°F)
Dewpoint: 24.0°C (75°F) [RH = 84%]
Pressure (altimeter): 29.82 inches Hg (1010.0 mb)
Winds: from the ESE (110 degrees) at 12 MPH (10 knots; 5.1 m/s)
Visibility: 6 or more miles (10+ km)
Ceiling: 1500 feet AGL
Clouds: broken clouds at 1500 feet AGL
broken clouds at 2700 feet AGL
Weather: no significant weather observed at this time

METAR text: YPXM 240830Z AUTO 11012KT 9999 // BKN015 BKN029 OVC035 27/24 Q1010
Conditions at: YPXM (CHRISTMAS ISL (P, AU) observed 0830 UTC 24 April 2019
Temperature: 27.0°C (81°F)
Dewpoint: 24.0°C (75°F) [RH = 84%]
Pressure (altimeter): 29.82 inches Hg (1010.0 mb)
Winds: from the ESE (110 degrees) at 14 MPH (12 knots; 6.2 m/s)
Visibility: 6 or more miles (10+ km)
Ceiling: 1500 feet AGL
Clouds: broken clouds at 1500 feet AGL
broken clouds at 2900 feet AGL
overcast cloud deck at 3500 feet AGL
Weather: no significant weather observed at this time

METAR text: YPXM 240800Z AUTO 11012KT 9999 // BKN015 BKN020 BKN027 27/24 Q1010
Conditions at: YPXM (CHRISTMAS ISL (P, AU) observed 0800 UTC 24 April 2019
Temperature: 27.0°C (81°F)
Dewpoint: 24.0°C (75°F) [RH = 84%]
Pressure (altimeter): 29.82 inches Hg (1010.0 mb)
Winds: from the ESE (110 degrees) at 14 MPH (12 knots; 6.2 m/s)
Visibility: 6 or more miles (10+ km)
Ceiling: 1500 feet AGL
Clouds: broken clouds at 1500 feet AGL
broken clouds at 2000 feet AGL
broken clouds at 2700 feet AGL
Weather: no significant weather observed at this time

METAR text: YPXM 240730Z AUTO 11012KT 9999 // SCT015 BKN021 28/25 Q1010
Conditions at: YPXM (CHRISTMAS ISL (P, AU) observed 0730 UTC 24 April 2019
Temperature: 28.0°C (82°F)
Dewpoint: 25.0°C (77°F) [RH = 84%]
Pressure (altimeter): 29.82 inches Hg (1010.0 mb)
Winds: from the ESE (110 degrees) at 14 MPH (12 knots; 6.2 m/s)
Visibility: 6 or more miles (10+ km)
Ceiling: 2100 feet AGL
Clouds: scattered clouds at 1500 feet AGL
broken clouds at 2100 feet AGL
Weather: no significant weather observed at this time

METAR text: YPXM 240725Z AUTO 11013KT 9999 // SCT013 BKN019 28/25 Q1010
Conditions at: YPXM (CHRISTMAS ISL (P, AU) observed 0725 UTC 24 April 2019
Temperature: 28.0°C (82°F)
Dewpoint: 25.0°C (77°F) [RH = 84%]
Pressure (altimeter): 29.82 inches Hg (1010.0 mb)
Winds: from the ESE (110 degrees) at 15 MPH (13 knots; 6.7 m/s)
Visibility: 6 or more miles (10+ km)
Ceiling: 1900 feet AGL
Clouds: scattered clouds at 1300 feet AGL
broken clouds at 1900 feet AGL
Weather: no significant weather observed at this time

METAR text: YPXM 240700Z AUTO 11012KT 9999 // BKN015 OVC022 28/25 Q1010
Conditions at: YPXM (CHRISTMAS ISL (P, AU) observed 0700 UTC 24 April 2019
Temperature: 28.0°C (82°F)
Dewpoint: 25.0°C (77°F) [RH = 84%]
Pressure (altimeter): 29.82 inches Hg (1010.0 mb)
Winds: from the ESE (110 degrees) at 14 MPH (12 knots; 6.2 m/s)
Visibility: 6 or more miles (10+ km)
Ceiling: 1500 feet AGL
Clouds: broken clouds at 1500 feet AGL
overcast cloud deck at 2200 feet AGL
Weather: no significant weather observed at this time

METAR text: YPXM 240633Z AUTO 11013KT 9999 // BKN013 OVC019 27/25 Q1010
Conditions at: YPXM (CHRISTMAS ISL (P, AU) observed 0633 UTC 24 April 2019
Temperature: 27.0°C (81°F)
Dewpoint: 25.0°C (77°F) [RH = 89%]
Pressure (altimeter): 29.82 inches Hg (1010.0 mb)
Winds: from the ESE (110 degrees) at 15 MPH (13 knots; 6.7 m/s)
Visibility: 6 or more miles (10+ km)
Ceiling: 1300 feet AGL
Clouds: broken clouds at 1300 feet AGL
overcast cloud deck at 1900 feet AGL
Weather: no significant weather observed at this time

METAR text: YPXM 240600Z AUTO 10011G21KT 9999 // BKN016 BKN021 28/24 Q1011
Conditions at: YPXM (CHRISTMAS ISL (P, AU) observed 0600 UTC 24 April 2019
Temperature: 28.0°C (82°F)
Dewpoint: 24.0°C (75°F) [RH = 79%]
Pressure (altimeter): 29.85 inches Hg (1011.0 mb)
Winds: from the E (100 degrees) at 13 MPH (11 knots; 5.7 m/s)
gusting to 24 MPH (21 knots; 10.8 m/s)
Visibility: 6 or more miles (10+ km)
Ceiling: 1600 feet AGL
Clouds: broken clouds at 1600 feet AGL
broken clouds at 2100 feet AGL
Weather: no significant weather observed at this time

METAR text: YPXM 240547Z AUTO 11012KT 9999 // BKN016 OVC021 27/24 Q1011
Conditions at: YPXM (CHRISTMAS ISL (P, AU) observed 0547 UTC 24 April 2019
Temperature: 27.0°C (81°F)
Dewpoint: 24.0°C (75°F) [RH = 84%]
Pressure (altimeter): 29.85 inches Hg (1011.0 mb)
Winds: from the ESE (110 degrees) at 14 MPH (12 knots; 6.2 m/s)
Visibility: 6 or more miles (10+ km)
Ceiling: 1600 feet AGL
Clouds: broken clouds at 1600 feet AGL
overcast cloud deck at 2100 feet AGL
Weather: no significant weather observed at this time

METAR text: YPXM 240530Z AUTO 11013KT 9999 -SHRA BKN014 BKN023 BKN034 27/25 Q1011
Conditions at: YPXM (CHRISTMAS ISL (P, AU) observed 0530 UTC 24 April 2019
Temperature: 27.0°C (81°F)
Dewpoint: 25.0°C (77°F) [RH = 89%]
Pressure (altimeter): 29.85 inches Hg (1011.0 mb)
Winds: from the ESE (110 degrees) at 15 MPH (13 knots; 6.7 m/s)
Visibility: 6 or more miles (10+ km)
Ceiling: 1400 feet AGL
Clouds: broken clouds at 1400 feet AGL
broken clouds at 2300 feet AGL
broken clouds at 3400 feet AGL
Weather: -SHRA  (light rain showers)

METAR text: YPXM 240527Z AUTO 11012KT 9999 -SHRA BKN014 BKN023 BKN034 27/25 Q1011
Conditions at: YPXM (CHRISTMAS ISL (P, AU) observed 0527 UTC 24 April 2019
Temperature: 27.0°C (81°F)
Dewpoint: 25.0°C (77°F) [RH = 89%]
Pressure (altimeter): 29.85 inches Hg (1011.0 mb)
Winds: from the ESE (110 degrees) at 14 MPH (12 knots; 6.2 m/s)
Visibility: 6 or more miles (10+ km)
Ceiling: 1400 feet AGL
Clouds: broken clouds at 1400 feet AGL
broken clouds at 2300 feet AGL
broken clouds at 3400 feet AGL
Weather: -SHRA  (light rain showers)

METAR text: YPXM 240517Z AUTO 09011KT 6000 RA SCT016 BKN023 BKN034 27/25 Q1011
Conditions at: YPXM (CHRISTMAS ISL (P, AU) observed 0517 UTC 24 April 2019
Temperature: 27.0°C (81°F)
Dewpoint: 25.0°C (77°F) [RH = 89%]
Pressure (altimeter): 29.85 inches Hg (1011.0 mb)
Winds: from the E (90 degrees) at 13 MPH (11 knots; 5.7 m/s)
Visibility: 4 miles ( 6 km)
Ceiling: 2300 feet AGL
Clouds: scattered clouds at 1600 feet AGL
broken clouds at 2300 feet AGL
broken clouds at 3400 feet AGL
Weather: RA  (moderate rain)

METAR text: YPXM 240509Z AUTO 09014KT 6000 RA SCT013 BKN020 BKN026 26/24 Q1011
Conditions at: YPXM (CHRISTMAS ISL (P, AU) observed 0509 UTC 24 April 2019
Temperature: 26.0°C (79°F)
Dewpoint: 24.0°C (75°F) [RH = 89%]
Pressure (altimeter): 29.85 inches Hg (1011.0 mb)
Winds: from the E (90 degrees) at 16 MPH (14 knots; 7.2 m/s)
Visibility: 4 miles ( 6 km)
Ceiling: 2000 feet AGL
Clouds: scattered clouds at 1300 feet AGL
broken clouds at 2000 feet AGL
broken clouds at 2600 feet AGL
Weather: RA  (moderate rain)

METAR text: YPXM 240504Z AUTO 11012KT 9999 // BKN013 BKN018 BKN024 27/24 Q1011
Conditions at: YPXM (CHRISTMAS ISL (P, AU) observed 0504 UTC 24 April 2019
Temperature: 27.0°C (81°F)
Dewpoint: 24.0°C (75°F) [RH = 84%]
Pressure (altimeter): 29.85 inches Hg (1011.0 mb)
Winds: from the ESE (110 degrees) at 14 MPH (12 knots; 6.2 m/s)
Visibility: 6 or more miles (10+ km)
Ceiling: 1300 feet AGL
Clouds: broken clouds at 1300 feet AGL
broken clouds at 1800 feet AGL
broken clouds at 2400 feet AGL
Weather: no significant weather observed at this time

METAR text: YPXM 240430Z AUTO 11013KT 9999 // BKN015 OVC020 27/24 Q1012
Conditions at: YPXM (CHRISTMAS ISL (P, AU) observed 0430 UTC 24 April 2019
Temperature: 27.0°C (81°F)
Dewpoint: 24.0°C (75°F) [RH = 84%]
Pressure (altimeter): 29.88 inches Hg (1012.0 mb)
Winds: from the ESE (110 degrees) at 15 MPH (13 knots; 6.7 m/s)
Visibility: 6 or more miles (10+ km)
Ceiling: 1500 feet AGL
Clouds: broken clouds at 1500 feet AGL
overcast cloud deck at 2000 feet AGL
Weather: no significant weather observed at this time

METAR text: YPXM 240400Z AUTO 11013KT 9999 // BKN015 OVC019 OVC024 27/24 Q1012
Conditions at: YPXM (CHRISTMAS ISL (P, AU) observed 0400 UTC 24 April 2019
Temperature: 27.0°C (81°F)
Dewpoint: 24.0°C (75°F) [RH = 84%]
Pressure (altimeter): 29.88 inches Hg (1012.0 mb)
Winds: from the ESE (110 degrees) at 15 MPH (13 knots; 6.7 m/s)
Visibility: 6 or more miles (10+ km)
Ceiling: 1500 feet AGL
Clouds: broken clouds at 1500 feet AGL
overcast cloud deck at 1900 feet AGL
overcast cloud deck at 2400 feet AGL
Weather: no significant weather observed at this time

METAR text: YPXM 240343Z AUTO 12009KT 9999 -SHRA BKN015 OVC027 27/25 Q1013
Conditions at: YPXM (CHRISTMAS ISL (P, AU) observed 0343 UTC 24 April 2019
Temperature: 27.0°C (81°F)
Dewpoint: 25.0°C (77°F) [RH = 89%]
Pressure (altimeter): 29.91 inches Hg (1013.0 mb)
Winds: from the ESE (120 degrees) at 10 MPH (9 knots; 4.6 m/s)
Visibility: 6 or more miles (10+ km)
Ceiling: 1500 feet AGL
Clouds: broken clouds at 1500 feet AGL
overcast cloud deck at 2700 feet AGL
Weather: -SHRA  (light rain showers)

METAR text: YPXM 240333Z AUTO 09008KT 9999 -DZ BKN015 OVC027 26/24 Q1013
Conditions at: YPXM (CHRISTMAS ISL (P, AU) observed 0333 UTC 24 April 2019
Temperature: 26.0°C (79°F)
Dewpoint: 24.0°C (75°F) [RH = 89%]
Pressure (altimeter): 29.91 inches Hg (1013.0 mb)
Winds: from the E (90 degrees) at 9 MPH (8 knots; 4.1 m/s)
Visibility: 6 or more miles (10+ km)
Ceiling: 1500 feet AGL
Clouds: broken clouds at 1500 feet AGL
overcast cloud deck at 2700 feet AGL
Weather: -DZ  (light drizzle)

METAR text: YPXM 240325Z AUTO 11015G25KT 9999 // SCT015 BKN023 BKN029 26/23 Q1013
Conditions at: YPXM (CHRISTMAS ISL (P, AU) observed 0325 UTC 24 April 2019
Temperature: 26.0°C (79°F)
Dewpoint: 23.0°C (73°F) [RH = 84%]
Pressure (altimeter): 29.91 inches Hg (1013.0 mb)
Winds: from the ESE (110 degrees) at 17 MPH (15 knots; 7.7 m/s)
gusting to 29 MPH (25 knots; 12.9 m/s)
Visibility: 6 or more miles (10+ km)
Ceiling: 2300 feet AGL
Clouds: scattered clouds at 1500 feet AGL
broken clouds at 2300 feet AGL
broken clouds at 2900 feet AGL
Weather: no significant weather observed at this time

METAR text: YPXM 240300Z AUTO 11013KT 9999 // BKN017 BKN023 28/24 Q1013
Conditions at: YPXM (CHRISTMAS ISL (P, AU) observed 0300 UTC 24 April 2019
Temperature: 28.0°C (82°F)
Dewpoint: 24.0°C (75°F) [RH = 79%]
Pressure (altimeter): 29.91 inches Hg (1013.0 mb)
Winds: from the ESE (110 degrees) at 15 MPH (13 knots; 6.7 m/s)
Visibility: 6 or more miles (10+ km)
Ceiling: 1700 feet AGL
Clouds: broken clouds at 1700 feet AGL
broken clouds at 2300 feet AGL
Weather: no significant weather observed at this time

METAR text: YPXM 240230Z AUTO 11013KT 9999 // BKN017 OVC032 OVC041 28/24 Q1013
Conditions at: YPXM (CHRISTMAS ISL (P, AU) observed 0230 UTC 24 April 2019
Temperature: 28.0°C (82°F)
Dewpoint: 24.0°C (75°F) [RH = 79%]
Pressure (altimeter): 29.91 inches Hg (1013.0 mb)
Winds: from the ESE (110 degrees) at 15 MPH (13 knots; 6.7 m/s)
Visibility: 6 or more miles (10+ km)
Ceiling: 1700 feet AGL
Clouds: broken clouds at 1700 feet AGL
overcast cloud deck at 3200 feet AGL
overcast cloud deck at 4100 feet AGL
Weather: no significant weather observed at this time

METAR text: YPXM 240200Z AUTO 11013G23KT 9999 // OVC017 OVC034 28/24 Q1013
Conditions at: YPXM (CHRISTMAS ISL (P, AU) observed 0200 UTC 24 April 2019
Temperature: 28.0°C (82°F)
Dewpoint: 24.0°C (75°F) [RH = 79%]
Pressure (altimeter): 29.91 inches Hg (1013.0 mb)
Winds: from the ESE (110 degrees) at 15 MPH (13 knots; 6.7 m/s)
gusting to 26 MPH (23 knots; 11.8 m/s)
Visibility: 6 or more miles (10+ km)
Ceiling: 1700 feet AGL
Clouds: overcast cloud deck at 1700 feet AGL
overcast cloud deck at 3400 feet AGL
Weather: no significant weather observed at this time

METAR text: YPXM 240130Z AUTO 11014KT 9999 // BKN015 27/24 Q1013 RF00.0/002.6
Conditions at: YPXM (CHRISTMAS ISL (P, AU) observed 0130 UTC 24 April 2019
Temperature: 27.0°C (81°F)
Dewpoint: 24.0°C (75°F) [RH = 84%]
Pressure (altimeter): 29.91 inches Hg (1013.0 mb)
Winds: from the ESE (110 degrees) at 16 MPH (14 knots; 7.2 m/s)
Visibility: 6 or more miles (10+ km)
Ceiling: 1500 feet AGL
Clouds: broken clouds at 1500 feet AGL
Weather: no significant weather observed at this time

METAR text: YPXM 240100Z AUTO 11013KT 9999 // SCT015 BKN019 BKN024 27/23 Q1012
Conditions at: YPXM (CHRISTMAS ISL (P, AU) observed 0100 UTC 24 April 2019
Temperature: 27.0°C (81°F)
Dewpoint: 23.0°C (73°F) [RH = 79%]
Pressure (altimeter): 29.88 inches Hg (1012.0 mb)
Winds: from the ESE (110 degrees) at 15 MPH (13 knots; 6.7 m/s)
Visibility: 6 or more miles (10+ km)
Ceiling: 1900 feet AGL
Clouds: scattered clouds at 1500 feet AGL
broken clouds at 1900 feet AGL
broken clouds at 2400 feet AGL
Weather: no significant weather observed at this time

METAR text: YPXM 240030Z AUTO 11013KT 9999 // BKN015 OVC026 27/24 Q1012
Conditions at: YPXM (CHRISTMAS ISL (P, AU) observed 0030 UTC 24 April 2019
Temperature: 27.0°C (81°F)
Dewpoint: 24.0°C (75°F) [RH = 84%]
Pressure (altimeter): 29.88 inches Hg (1012.0 mb)
Winds: from the ESE (110 degrees) at 15 MPH (13 knots; 6.7 m/s)
Visibility: 6 or more miles (10+ km)
Ceiling: 1500 feet AGL
Clouds: broken clouds at 1500 feet AGL
overcast cloud deck at 2600 feet AGL
Weather: no significant weather observed at this time

METAR text: YPXM 240000Z AUTO 11013KT 9999 // SCT017 BKN020 BKN025 27/24 Q1012
Conditions at: YPXM (CHRISTMAS ISL (P, AU) observed 0000 UTC 24 April 2019
Temperature: 27.0°C (81°F)
Dewpoint: 24.0°C (75°F) [RH = 84%]
Pressure (altimeter): 29.88 inches Hg (1012.0 mb)
Winds: from the ESE (110 degrees) at 15 MPH (13 knots; 6.7 m/s)
Visibility: 6 or more miles (10+ km)
Ceiling: 2000 feet AGL
Clouds: scattered clouds at 1700 feet AGL
broken clouds at 2000 feet AGL
broken clouds at 2500 feet AGL
Weather: no significant weather observed at this time

METAR text: YPXM 232348Z AUTO 11013KT 9999 // SCT013 BKN019 BKN024 27/24 Q1012
Conditions at: YPXM (CHRISTMAS ISL (P, AU) observed 2348 UTC 23 April 2019
Temperature: 27.0°C (81°F)
Dewpoint: 24.0°C (75°F) [RH = 84%]
Pressure (altimeter): 29.88 inches Hg (1012.0 mb)
Winds: from the ESE (110 degrees) at 15 MPH (13 knots; 6.7 m/s)
Visibility: 6 or more miles (10+ km)
Ceiling: 1900 feet AGL
Clouds: scattered clouds at 1300 feet AGL
broken clouds at 1900 feet AGL
broken clouds at 2400 feet AGL
Weather: no significant weather observed at this time

METAR text: YPXM 232332Z AUTO 11013KT 9999 // BKN013 BKN021 OVC033 27/23 Q1011
Conditions at: YPXM (CHRISTMAS ISL (P, AU) observed 2332 UTC 23 April 2019
Temperature: 27.0°C (81°F)
Dewpoint: 23.0°C (73°F) [RH = 79%]
Pressure (altimeter): 29.85 inches Hg (1011.0 mb)
Winds: from the ESE (110 degrees) at 15 MPH (13 knots; 6.7 m/s)
Visibility: 6 or more miles (10+ km)
Ceiling: 1300 feet AGL
Clouds: broken clouds at 1300 feet AGL
broken clouds at 2100 feet AGL
overcast cloud deck at 3300 feet AGL
Weather: no significant weather observed at this time

METAR text: YPXM 232300Z AUTO 11013KT 9999 // SCT017 SCT021 26/24 Q1011
Conditions at: YPXM (CHRISTMAS ISL (P, AU) observed 2300 UTC 23 April 2019
Temperature: 26.0°C (79°F)
Dewpoint: 24.0°C (75°F) [RH = 89%]
Pressure (altimeter): 29.85 inches Hg (1011.0 mb)
Winds: from the ESE (110 degrees) at 15 MPH (13 knots; 6.7 m/s)
Visibility: 6 or more miles (10+ km)
Ceiling: at least 12,000 feet AGL
Clouds: scattered clouds at 1700 feet AGL
scattered clouds at 2100 feet AGL
Weather: no significant weather observed at this time

METAR text: YPXM 232230Z AUTO 11015KT 9999 // BKN017 26/24 Q1011 RF00.0/002.6
Conditions at: YPXM (CHRISTMAS ISL (P, AU) observed 2230 UTC 23 April 2019
Temperature: 26.0°C (79°F)
Dewpoint: 24.0°C (75°F) [RH = 89%]
Pressure (altimeter): 29.85 inches Hg (1011.0 mb)
Winds: from the ESE (110 degrees) at 17 MPH (15 knots; 7.7 m/s)
Visibility: 6 or more miles (10+ km)
Ceiling: 1700 feet AGL
Clouds: broken clouds at 1700 feet AGL
Weather: no significant weather observed at this time

METAR text: YPXM 232207Z AUTO 11013KT 9999 // SCT014 BKN019 26/23 Q1010
Conditions at: YPXM (CHRISTMAS ISL (P, AU) observed 2207 UTC 23 April 2019
Temperature: 26.0°C (79°F)
Dewpoint: 23.0°C (73°F) [RH = 84%]
Pressure (altimeter): 29.82 inches Hg (1010.0 mb)
Winds: from the ESE (110 degrees) at 15 MPH (13 knots; 6.7 m/s)
Visibility: 6 or more miles (10+ km)
Ceiling: 1900 feet AGL
Clouds: scattered clouds at 1400 feet AGL
broken clouds at 1900 feet AGL
Weather: no significant weather observed at this time

METAR text: YPXM 232200Z AUTO 11014KT 9999 // BKN016 26/23 Q1010
Conditions at: YPXM (CHRISTMAS ISL (P, AU) observed 2200 UTC 23 April 2019
Temperature: 26.0°C (79°F)
Dewpoint: 23.0°C (73°F) [RH = 84%]
Pressure (altimeter): 29.82 inches Hg (1010.0 mb)
Winds: from the ESE (110 degrees) at 16 MPH (14 knots; 7.2 m/s)
Visibility: 6 or more miles (10+ km)
Ceiling: 1600 feet AGL
Clouds: broken clouds at 1600 feet AGL
Weather: no significant weather observed at this time

METAR text: YPXM 232144Z AUTO 11013KT 9999 // SCT014 BKN018 BKN021 26/24 Q1010
Conditions at: YPXM (CHRISTMAS ISL (P, AU) observed 2144 UTC 23 April 2019
Temperature: 26.0°C (79°F)
Dewpoint: 24.0°C (75°F) [RH = 89%]
Pressure (altimeter): 29.82 inches Hg (1010.0 mb)
Winds: from the ESE (110 degrees) at 15 MPH (13 knots; 6.7 m/s)
Visibility: 6 or more miles (10+ km)
Ceiling: 1800 feet AGL
Clouds: scattered clouds at 1400 feet AGL
broken clouds at 1800 feet AGL
broken clouds at 2100 feet AGL
Weather: no significant weather observed at this time

METAR text: YPXM 232141Z AUTO 11014KT 9999 // SCT014 BKN018 26/23 Q1010
Conditions at: YPXM (CHRISTMAS ISL (P, AU) observed 2141 UTC 23 April 2019
Temperature: 26.0°C (79°F)
Dewpoint: 23.0°C (73°F) [RH = 84%]
Pressure (altimeter): 29.82 inches Hg (1010.0 mb)
Winds: from the ESE (110 degrees) at 16 MPH (14 knots; 7.2 m/s)
Visibility: 6 or more miles (10+ km)
Ceiling: 1800 feet AGL
Clouds: scattered clouds at 1400 feet AGL
broken clouds at 1800 feet AGL
Weather: no significant weather observed at this time

METAR text: YPXM 232131Z AUTO 11012KT 9999 // SCT014 BKN017 BKN022 26/23 Q1010
Conditions at: YPXM (CHRISTMAS ISL (P, AU) observed 2131 UTC 23 April 2019
Temperature: 26.0°C (79°F)
Dewpoint: 23.0°C (73°F) [RH = 84%]
Pressure (altimeter): 29.82 inches Hg (1010.0 mb)
Winds: from the ESE (110 degrees) at 14 MPH (12 knots; 6.2 m/s)
Visibility: 6 or more miles (10+ km)
Ceiling: 1700 feet AGL
Clouds: scattered clouds at 1400 feet AGL
broken clouds at 1700 feet AGL
broken clouds at 2200 feet AGL
Weather: no significant weather observed at this time

METAR text: YPXM 232100Z AUTO 11012KT 9999 // BKN016 BKN022 OVC027 26/24 Q1010
Conditions at: YPXM (CHRISTMAS ISL (P, AU) observed 2100 UTC 23 April 2019
Temperature: 26.0°C (79°F)
Dewpoint: 24.0°C (75°F) [RH = 89%]
Pressure (altimeter): 29.82 inches Hg (1010.0 mb)
Winds: from the ESE (110 degrees) at 14 MPH (12 knots; 6.2 m/s)
Visibility: 6 or more miles (10+ km)
Ceiling: 1600 feet AGL
Clouds: broken clouds at 1600 feet AGL
broken clouds at 2200 feet AGL
overcast cloud deck at 2700 feet AGL
Weather: no significant weather observed at this time

METAR text: YPXM 232030Z AUTO 11013KT 9999 // SCT014 SCT019 BKN023 26/23 Q1010
Conditions at: YPXM (CHRISTMAS ISL (P, AU) observed 2030 UTC 23 April 2019
Temperature: 26.0°C (79°F)
Dewpoint: 23.0°C (73°F) [RH = 84%]
Pressure (altimeter): 29.82 inches Hg (1010.0 mb)
Winds: from the ESE (110 degrees) at 15 MPH (13 knots; 6.7 m/s)
Visibility: 6 or more miles (10+ km)
Ceiling: 2300 feet AGL
Clouds: scattered clouds at 1400 feet AGL
scattered clouds at 1900 feet AGL
broken clouds at 2300 feet AGL
Weather: no significant weather observed at this time

METAR text: YPXM 232000Z AUTO 10013KT 9999 // SCT015 SCT021 SCT026 26/23 Q1010
Conditions at: YPXM (CHRISTMAS ISL (P, AU) observed 2000 UTC 23 April 2019
Temperature: 26.0°C (79°F)
Dewpoint: 23.0°C (73°F) [RH = 84%]
Pressure (altimeter): 29.82 inches Hg (1010.0 mb)
Winds: from the E (100 degrees) at 15 MPH (13 knots; 6.7 m/s)
Visibility: 6 or more miles (10+ km)
Ceiling: at least 12,000 feet AGL
Clouds: scattered clouds at 1500 feet AGL
scattered clouds at 2100 feet AGL
scattered clouds at 2600 feet AGL
Weather: no significant weather observed at this time

METAR text: YPXM 231930Z AUTO 11012KT 9999 // BKN015 BKN021 BKN027 26/24 Q1011
Conditions at: YPXM (CHRISTMAS ISL (P, AU) observed 1930 UTC 23 April 2019
Temperature: 26.0°C (79°F)
Dewpoint: 24.0°C (75°F) [RH = 89%]
Pressure (altimeter): 29.85 inches Hg (1011.0 mb)
Winds: from the ESE (110 degrees) at 14 MPH (12 knots; 6.2 m/s)
Visibility: 6 or more miles (10+ km)
Ceiling: 1500 feet AGL
Clouds: broken clouds at 1500 feet AGL
broken clouds at 2100 feet AGL
broken clouds at 2700 feet AGL
Weather: no significant weather observed at this time

METAR text: YPXM 231900Z AUTO 11013KT 9999 // SCT015 BKN019 BKN025 26/23 Q1011
Conditions at: YPXM (CHRISTMAS ISL (P, AU) observed 1900 UTC 23 April 2019
Temperature: 26.0°C (79°F)
Dewpoint: 23.0°C (73°F) [RH = 84%]
Pressure (altimeter): 29.85 inches Hg (1011.0 mb)
Winds: from the ESE (110 degrees) at 15 MPH (13 knots; 6.7 m/s)
Visibility: 6 or more miles (10+ km)
Ceiling: 1900 feet AGL
Clouds: scattered clouds at 1500 feet AGL
broken clouds at 1900 feet AGL
broken clouds at 2500 feet AGL
Weather: no significant weather observed at this time

METAR text: YPXM 231830Z AUTO 12014KT 9999 // SCT015 BKN020 BKN027 26/23 Q1011
Conditions at: YPXM (CHRISTMAS ISL (P, AU) observed 1830 UTC 23 April 2019
Temperature: 26.0°C (79°F)
Dewpoint: 23.0°C (73°F) [RH = 84%]
Pressure (altimeter): 29.85 inches Hg (1011.0 mb)
Winds: from the ESE (120 degrees) at 16 MPH (14 knots; 7.2 m/s)
Visibility: 6 or more miles (10+ km)
Ceiling: 2000 feet AGL
Clouds: scattered clouds at 1500 feet AGL
broken clouds at 2000 feet AGL
broken clouds at 2700 feet AGL
Weather: no significant weather observed at this time

METAR text: YPXM 231800Z AUTO 12014KT 9999 // SCT018 SCT026 26/23 Q1011
Conditions at: YPXM (CHRISTMAS ISL (P, AU) observed 1800 UTC 23 April 2019
Temperature: 26.0°C (79°F)
Dewpoint: 23.0°C (73°F) [RH = 84%]
Pressure (altimeter): 29.85 inches Hg (1011.0 mb)
Winds: from the ESE (120 degrees) at 16 MPH (14 knots; 7.2 m/s)
Visibility: 6 or more miles (10+ km)
Ceiling: at least 12,000 feet AGL
Clouds: scattered clouds at 1800 feet AGL
scattered clouds at 2600 feet AGL
Weather: no significant weather observed at this time

METAR text: YPXM 231730Z AUTO 12014KT 9999 // SCT017 SCT023 26/23 Q1012
Conditions at: YPXM (CHRISTMAS ISL (P, AU) observed 1730 UTC 23 April 2019
Temperature: 26.0°C (79°F)
Dewpoint: 23.0°C (73°F) [RH = 84%]
Pressure (altimeter): 29.88 inches Hg (1012.0 mb)
Winds: from the ESE (120 degrees) at 16 MPH (14 knots; 7.2 m/s)
Visibility: 6 or more miles (10+ km)
Ceiling: at least 12,000 feet AGL
Clouds: scattered clouds at 1700 feet AGL
scattered clouds at 2300 feet AGL
Weather: no significant weather observed at this time

METAR text: YPXM 231700Z AUTO 11014KT 9999 // SCT019 BKN023 27/23 Q1012
Conditions at: YPXM (CHRISTMAS ISL (P, AU) observed 1700 UTC 23 April 2019
Temperature: 27.0°C (81°F)
Dewpoint: 23.0°C (73°F) [RH = 79%]
Pressure (altimeter): 29.88 inches Hg (1012.0 mb)
Winds: from the ESE (110 degrees) at 16 MPH (14 knots; 7.2 m/s)
Visibility: 6 or more miles (10+ km)
Ceiling: 2300 feet AGL
Clouds: scattered clouds at 1900 feet AGL
broken clouds at 2300 feet AGL
Weather: no significant weather observed at this time

METAR text: YPXM 231630Z AUTO 11013KT 9999 // SCT020 27/23 Q1012 RF00.0/002.6
Conditions at: YPXM (CHRISTMAS ISL (P, AU) observed 1630 UTC 23 April 2019
Temperature: 27.0°C (81°F)
Dewpoint: 23.0°C (73°F) [RH = 79%]
Pressure (altimeter): 29.88 inches Hg (1012.0 mb)
Winds: from the ESE (110 degrees) at 15 MPH (13 knots; 6.7 m/s)
Visibility: 6 or more miles (10+ km)
Ceiling: at least 12,000 feet AGL
Clouds: scattered clouds at 2000 feet AGL
Weather: no significant weather observed at this time

METAR text: YPXM 231600Z AUTO 11013KT 9999 // SCT016 SCT021 27/24 Q1012
Conditions at: YPXM (CHRISTMAS ISL (P, AU) observed 1600 UTC 23 April 2019
Temperature: 27.0°C (81°F)
Dewpoint: 24.0°C (75°F) [RH = 84%]
Pressure (altimeter): 29.88 inches Hg (1012.0 mb)
Winds: from the ESE (110 degrees) at 15 MPH (13 knots; 6.7 m/s)
Visibility: 6 or more miles (10+ km)
Ceiling: at least 12,000 feet AGL
Clouds: scattered clouds at 1600 feet AGL
scattered clouds at 2100 feet AGL
Weather: no significant weather observed at this time

METAR text: YPXM 231530Z AUTO 12014KT 9999 // OVC017 27/24 Q1013 RF00.0/002.6
Conditions at: YPXM (CHRISTMAS ISL (P, AU) observed 1530 UTC 23 April 2019
Temperature: 27.0°C (81°F)
Dewpoint: 24.0°C (75°F) [RH = 84%]
Pressure (altimeter): 29.91 inches Hg (1013.0 mb)
Winds: from the ESE (120 degrees) at 16 MPH (14 knots; 7.2 m/s)
Visibility: 6 or more miles (10+ km)
Ceiling: 1700 feet AGL
Clouds: overcast cloud deck at 1700 feet AGL
Weather: no significant weather observed at this time

METAR text: YPXM 231500Z AUTO 12014KT 9999 // SCT017 BKN021 27/24 Q1013
Conditions at: YPXM (CHRISTMAS ISL (P, AU) observed 1500 UTC 23 April 2019
Temperature: 27.0°C (81°F)
Dewpoint: 24.0°C (75°F) [RH = 84%]
Pressure (altimeter): 29.91 inches Hg (1013.0 mb)
Winds: from the ESE (120 degrees) at 16 MPH (14 knots; 7.2 m/s)
Visibility: 6 or more miles (10+ km)
Ceiling: 2100 feet AGL
Clouds: scattered clouds at 1700 feet AGL
broken clouds at 2100 feet AGL
Weather: no significant weather observed at this time

METAR text: YPXM 231430Z AUTO 12015KT 9999 // BKN017 OVC024 OVC031 27/24 Q1013
Conditions at: YPXM (CHRISTMAS ISL (P, AU) observed 1430 UTC 23 April 2019
Temperature: 27.0°C (81°F)
Dewpoint: 24.0°C (75°F) [RH = 84%]
Pressure (altimeter): 29.91 inches Hg (1013.0 mb)
Winds: from the ESE (120 degrees) at 17 MPH (15 knots; 7.7 m/s)
Visibility: 6 or more miles (10+ km)
Ceiling: 1700 feet AGL
Clouds: broken clouds at 1700 feet AGL
overcast cloud deck at 2400 feet AGL
overcast cloud deck at 3100 feet AGL
Weather: no significant weather observed at this time

METAR text: YPXM 231400Z AUTO 12015KT 9999 // BKN015 OVC021 27/24 Q1012
Conditions at: YPXM (CHRISTMAS ISL (P, AU) observed 1400 UTC 23 April 2019
Temperature: 27.0°C (81°F)
Dewpoint: 24.0°C (75°F) [RH = 84%]
Pressure (altimeter): 29.88 inches Hg (1012.0 mb)
Winds: from the ESE (120 degrees) at 17 MPH (15 knots; 7.7 m/s)
Visibility: 6 or more miles (10+ km)
Ceiling: 1500 feet AGL
Clouds: broken clouds at 1500 feet AGL
overcast cloud deck at 2100 feet AGL
Weather: no significant weather observed at this time

METAR text: YPXM 231330Z AUTO 12013KT 9999 // SCT015 BKN025 27/24 Q1012
Conditions at: YPXM (CHRISTMAS ISL (P, AU) observed 1330 UTC 23 April 2019
Temperature: 27.0°C (81°F)
Dewpoint: 24.0°C (75°F) [RH = 84%]
Pressure (altimeter): 29.88 inches Hg (1012.0 mb)
Winds: from the ESE (120 degrees) at 15 MPH (13 knots; 6.7 m/s)
Visibility: 6 or more miles (10+ km)
Ceiling: 2500 feet AGL
Clouds: scattered clouds at 1500 feet AGL
broken clouds at 2500 feet AGL
Weather: no significant weather observed at this time

METAR text: YPXM 231300Z AUTO 12013KT 9999 // BKN015 BKN021 27/24 Q1012
Conditions at: YPXM (CHRISTMAS ISL (P, AU) observed 1300 UTC 23 April 2019
Temperature: 27.0°C (81°F)
Dewpoint: 24.0°C (75°F) [RH = 84%]
Pressure (altimeter): 29.88 inches Hg (1012.0 mb)
Winds: from the ESE (120 degrees) at 15 MPH (13 knots; 6.7 m/s)
Visibility: 6 or more miles (10+ km)
Ceiling: 1500 feet AGL
Clouds: broken clouds at 1500 feet AGL
broken clouds at 2100 feet AGL
Weather: no significant weather observed at this time

METAR text: YPXM 231230Z AUTO 12014KT 9999 // SCT015 BKN020 BKN024 27/24 Q1012
Conditions at: YPXM (CHRISTMAS ISL (P, AU) observed 1230 UTC 23 April 2019
Temperature: 27.0°C (81°F)
Dewpoint: 24.0°C (75°F) [RH = 84%]
Pressure (altimeter): 29.88 inches Hg (1012.0 mb)
Winds: from the ESE (120 degrees) at 16 MPH (14 knots; 7.2 m/s)
Visibility: 6 or more miles (10+ km)
Ceiling: 2000 feet AGL
Clouds: scattered clouds at 1500 feet AGL
broken clouds at 2000 feet AGL
broken clouds at 2400 feet AGL
Weather: no significant weather observed at this time

Forecast for: YPXM (CHRISTMAS ISL (P, AU)
Text: TAF YPXM 242257Z 2500/2524 10014KT 9999 -SHRA SCT008 BKN012 INTER 2500/2524 2000 SHRA BKN005
Forecast period: 0000 UTC 25 April 2019 to 0000 UTC 26 April 2019
Forecast type: FROM: standard forecast or significant change
Winds: from the E (100 degrees) at 16 MPH (14 knots; 7.2 m/s)
Visibility: 6 or more miles 10+ km)
Ceiling: 1200 feet AGL
Clouds: scattered clouds at 800 feet AGL
broken clouds at 1200 feet AGL
Weather: -SHRA  (light rain showers)
Text:
Forecast period: 0000 UTC 25 April 2019 to 0000 UTC 26 April 2019
Forecast type: TEMPORARY: The following changes expected for less than half the time period
Visibility: 1.24 miles (2.00 km)
Ceiling: 500 feet AGL
Clouds: broken clouds at 500 feet AGL
Weather: SHRA  (rain showers)